Time;durP1;ratioP1;P1;durP2;ratioP2;P2;SDS_P1;SDS_P2;PMS_P1;PMS_P2;Temp;Humidity;BMP_temperature;BMP_pressure;BME280_temperature;BME280_humidity;BME280_pressure;Samples;Min_cycle;Max_cycle;Signal;HPM_P1;HPM_P2
2023/07/19 00:00:39;;;;;;;3.87;2.87;;;17.10;99.90;;;;;;5048353;28;20673;-71
2023/07/19 00:03:05;;;;;;;4.93;3.00;;;17.10;99.90;;;;;;5047537;28;20189;-71
2023/07/19 00:05:31;;;;;;;4.07;2.83;;;17.10;99.90;;;;;;5047932;28;20264;-71
2023/07/19 00:07:57;;;;;;;3.60;3.00;;;17.10;99.90;;;;;;5047954;28;20467;-71
2023/07/19 00:10:23;;;;;;;5.07;2.23;;;17.10;99.90;;;;;;5048217;28;20662;-71
2023/07/19 00:12:49;;;;;;;4.43;2.80;;;17.20;99.90;;;;;;5047672;28;20181;-70
2023/07/19 00:15:16;;;;;;;3.53;2.27;;;17.20;99.90;;;;;;5048069;28;20507;-71
2023/07/19 00:17:44;;;;;;;3.23;2.50;;;17.30;99.90;;;;;;5048141;28;20483;-71
2023/07/19 00:20:10;;;;;;;2.37;1.97;;;17.30;99.90;;;;;;5048244;28;20773;-71
2023/07/19 00:22:37;;;;;;;3.77;2.60;;;17.30;99.90;;;;;;5047441;28;20982;-71
2023/07/19 00:25:03;;;;;;;3.47;2.33;;;17.40;99.90;;;;;;5047680;28;20420;-71
2023/07/19 00:27:29;;;;;;;3.23;2.53;;;17.40;99.90;;;;;;5048999;28;20445;-71
2023/07/19 00:29:54;;;;;;;3.60;2.30;;;17.40;99.90;;;;;;5050241;28;20464;-71
2023/07/19 00:32:20;;;;;;;2.70;2.20;;;17.40;99.90;;;;;;5047459;28;20269;-71
2023/07/19 00:34:46;;;;;;;2.67;2.40;;;17.40;99.90;;;;;;5050413;28;20185;-71
2023/07/19 00:37:11;;;;;;;3.47;2.80;;;17.40;99.90;;;;;;5051952;28;20206;-71
2023/07/19 00:39:37;;;;;;;2.90;2.60;;;17.50;99.90;;;;;;5051834;28;20306;-71
2023/07/19 00:42:03;;;;;;;3.77;2.40;;;17.40;99.90;;;;;;5051136;28;20656;-71
2023/07/19 00:44:29;;;;;;;3.10;2.80;;;17.50;99.90;;;;;;5051465;28;20420;-71
2023/07/19 00:46:55;;;;;;;5.07;2.57;;;17.50;99.90;;;;;;5049940;28;20454;-71
2023/07/19 00:49:20;;;;;;;3.47;2.53;;;17.50;99.90;;;;;;5051133;28;20217;-72
2023/07/19 00:51:46;;;;;;;6.27;2.60;;;17.60;99.90;;;;;;5049883;28;20206;-71
2023/07/19 00:54:13;;;;;;;5.20;2.87;;;17.60;99.90;;;;;;5050499;28;20452;-71
2023/07/19 00:56:42;;;;;;;3.80;2.60;;;17.60;99.90;;;;;;5051020;28;20485;-71
2023/07/19 00:59:08;;;;;;;4.30;2.67;;;17.60;99.90;;;;;;5050971;28;20490;-71
2023/07/19 01:01:35;;;;;;;2.40;2.17;;;17.70;99.90;;;;;;5049837;28;20808;-71
2023/07/19 01:04:00;;;;;;;4.80;2.77;;;17.60;99.90;;;;;;5050666;28;20452;-71
2023/07/19 01:06:26;;;;;;;3.40;2.60;;;17.60;99.90;;;;;;5050382;28;20983;-71
2023/07/19 01:08:52;;;;;;;3.30;2.43;;;17.60;99.90;;;;;;5031254;28;20297;-71
2023/07/19 01:11:18;;;;;;;3.40;2.60;;;17.60;99.90;;;;;;5031523;28;20182;-71
2023/07/19 01:13:53;;;;;;;3.63;2.40;;;17.50;99.90;;;;;;5031021;28;20178;-71
2023/07/19 01:16:19;;;;;;;4.83;2.30;;;17.50;99.90;;;;;;5030948;28;20241;-71
2023/07/19 01:18:46;;;;;;;2.90;2.60;;;17.50;99.90;;;;;;5031381;28;20421;-72
2023/07/19 01:21:12;;;;;;;6.37;2.70;;;17.60;99.90;;;;;;5030968;28;20421;-71
2023/07/19 01:23:38;;;;;;;4.07;2.47;;;17.60;99.90;;;;;;5030576;28;20424;-71
2023/07/19 01:26:03;;;;;;;2.87;2.30;;;17.60;99.90;;;;;;5030699;28;20294;-71
2023/07/19 01:28:29;;;;;;;3.83;2.50;;;17.60;99.90;;;;;;5048331;28;21142;-71
2023/07/19 01:30:55;;;;;;;3.37;2.30;;;17.50;99.90;;;;;;5069367;28;20268;-71
2023/07/19 01:33:21;;;;;;;4.00;2.90;;;17.30;99.90;;;;;;5070309;28;20498;-71
2023/07/19 01:35:46;;;;;;;4.90;2.70;;;17.10;99.90;;;;;;5068965;28;20174;-71
2023/07/19 01:38:12;;;;;;;4.03;2.63;;;17.00;99.90;;;;;;5069448;28;20714;-71
2023/07/19 01:40:38;;;;;;;3.47;2.47;;;16.80;99.90;;;;;;5070528;28;20222;-72
2023/07/19 01:43:03;;;;;;;3.13;2.80;;;16.70;99.90;;;;;;5070100;28;20216;-71
2023/07/19 01:45:29;;;;;;;4.10;2.50;;;16.60;99.90;;;;;;5068842;28;20181;-71
2023/07/19 01:47:55;;;;;;;2.70;2.10;;;16.60;99.90;;;;;;5070341;28;20205;-71
2023/07/19 01:50:20;;;;;;;4.13;2.40;;;16.40;99.90;;;;;;5069107;28;20256;-72
2023/07/19 01:52:46;;;;;;;2.67;2.43;;;16.40;99.90;;;;;;5055542;28;20677;-72
2023/07/19 01:55:13;;;;;;;2.90;2.57;;;16.40;99.90;;;;;;5046561;28;20780;-72
2023/07/19 01:57:38;;;;;;;2.37;2.10;;;16.40;99.90;;;;;;5049801;28;20206;-72
2023/07/19 02:00:04;;;;;;;3.03;2.40;;;16.30;99.90;;;;;;5048467;28;21086;-72
2023/07/19 02:02:30;;;;;;;4.30;2.37;;;16.20;99.90;;;;;;5049370;28;20189;-71
2023/07/19 02:04:56;;;;;;;2.63;2.00;;;16.20;99.90;;;;;;5049349;28;20511;-71
2023/07/19 02:07:21;;;;;;;4.13;2.40;;;16.10;99.90;;;;;;5049454;28;20221;-71
2023/07/19 02:09:47;;;;;;;4.03;2.40;;;16.10;99.90;;;;;;5049530;28;20213;-72
2023/07/19 02:12:12;;;;;;;2.67;2.10;;;16.00;99.90;;;;;;5049138;28;20599;-71
2023/07/19 02:14:39;;;;;;;7.73;2.67;;;16.00;99.90;;;;;;5049357;28;20243;-71
2023/07/19 02:17:05;;;;;;;3.20;2.60;;;16.00;99.90;;;;;;5048201;28;20752;-71
2023/07/19 02:19:31;;;;;;;3.40;2.20;;;15.80;99.90;;;;;;5048196;28;21078;-72
2023/07/19 02:21:56;;;;;;;3.70;2.60;;;15.90;99.90;;;;;;5049385;28;20427;-71
2023/07/19 02:24:22;;;;;;;3.27;2.60;;;15.80;99.90;;;;;;5049114;28;20190;-71
2023/07/19 02:26:47;;;;;;;2.50;2.30;;;15.80;99.90;;;;;;5049136;28;20213;-71
2023/07/19 02:29:13;;;;;;;2.97;2.67;;;15.80;99.90;;;;;;5051045;28;20235;-71
2023/07/19 02:31:39;;;;;;;2.77;2.50;;;15.70;99.90;;;;;;5049173;28;20248;-72
2023/07/19 02:34:07;;;;;;;4.83;2.63;;;15.70;99.90;;;;;;5049099;28;20268;-71
2023/07/19 02:36:34;;;;;;;2.80;2.20;;;15.70;99.90;;;;;;5048781;28;20217;-71
2023/07/19 02:39:01;;;;;;;3.50;2.50;;;15.60;99.90;;;;;;5047671;28;20975;-71
2023/07/19 02:41:27;;;;;;;3.13;2.47;;;15.60;99.90;;;;;;5047531;28;20419;-71
2023/07/19 02:43:52;;;;;;;3.60;2.60;;;15.60;99.90;;;;;;5048770;28;20424;-71
2023/07/19 02:46:18;;;;;;;3.23;2.37;;;15.70;99.90;;;;;;5047148;28;20244;-71
2023/07/19 02:48:44;;;;;;;3.10;2.20;;;15.70;99.90;;;;;;5048835;28;20247;-71
2023/07/19 02:51:09;;;;;;;4.70;2.30;;;15.80;99.90;;;;;;5048643;28;20182;-71
2023/07/19 02:53:36;;;;;;;2.53;2.33;;;15.90;99.90;;;;;;5048562;28;20194;-71
2023/07/19 02:56:02;;;;;;;3.20;2.40;;;15.90;99.90;;;;;;5033496;28;20858;-71
2023/07/19 02:58:28;;;;;;;4.10;2.40;;;15.90;99.90;;;;;;5029131;28;20464;-71
2023/07/19 03:00:54;;;;;;;4.00;2.77;;;15.90;99.90;;;;;;5029048;28;20265;-71
2023/07/19 03:03:20;;;;;;;3.20;2.50;;;15.90;99.90;;;;;;5028726;28;20509;-71
2023/07/19 03:05:46;;;;;;;5.13;2.60;;;15.90;99.90;;;;;;5028701;28;20188;-71
2023/07/19 03:08:12;;;;;;;3.13;2.47;;;16.00;99.90;;;;;;5027552;28;20472;-72
2023/07/19 03:10:39;;;;;;;3.63;2.80;;;16.10;99.90;;;;;;5028773;28;20209;-71
2023/07/19 03:13:05;;;;;;;3.73;2.50;;;16.10;99.90;;;;;;5027583;28;20487;-71
2023/07/19 03:15:33;;;;;;;4.57;2.80;;;16.20;99.90;;;;;;5028767;28;20504;-72
2023/07/19 03:18:00;;;;;;;3.87;3.10;;;16.30;99.90;;;;;;5028667;28;20814;-72
2023/07/19 03:20:27;;;;;;;4.23;3.00;;;16.20;99.90;;;;;;5028699;28;20601;-72
2023/07/19 03:22:54;;;;;;;4.90;2.77;;;16.10;99.90;;;;;;5028310;28;20425;-72
2023/07/19 03:25:20;;;;;;;3.47;2.63;;;16.10;99.90;;;;;;5027410;28;20417;-72
2023/07/19 03:27:45;;;;;;;2.97;2.37;;;16.10;99.90;;;;;;5034914;28;20987;-71
2023/07/19 03:30:12;;;;;;;6.07;3.73;;;16.20;99.90;;;;;;5068534;28;20264;-72
2023/07/19 03:32:37;;;;;;;3.80;2.90;;;16.30;99.90;;;;;;5067945;28;20192;-72
2023/07/19 03:35:04;;;;;;;3.70;2.93;;;16.30;99.90;;;;;;5068381;28;20419;-72
2023/07/19 03:37:30;;;;;;;4.90;2.97;;;16.30;99.90;;;;;;5068237;28;20246;-72
2023/07/19 03:39:55;;;;;;;4.10;2.90;;;16.30;99.90;;;;;;5068346;28;20411;-72
2023/07/19 03:42:21;;;;;;;3.43;2.90;;;16.20;99.90;;;;;;5066728;28;20169;-71
2023/07/19 03:44:47;;;;;;;3.03;2.73;;;16.30;99.90;;;;;;5068047;28;20177;-72
2023/07/19 03:47:12;;;;;;;2.83;2.50;;;16.30;99.90;;;;;;5068289;28;20225;-72
2023/07/19 03:49:38;;;;;;;3.77;2.93;;;16.40;99.90;;;;;;5068558;28;20205;-72
2023/07/19 03:52:04;;;;;;;3.27;2.97;;;16.40;99.90;;;;;;5059167;28;20185;-71
2023/07/19 03:54:29;;;;;;;4.40;3.10;;;16.50;99.90;;;;;;5048364;28;20178;-72
2023/07/19 03:56:55;;;;;;;2.90;2.43;;;16.50;99.90;;;;;;5047942;28;20519;-71
2023/07/19 03:59:21;;;;;;;3.47;2.83;;;16.50;99.90;;;;;;5048349;28;20169;-71
2023/07/19 04:01:47;;;;;;;3.53;3.10;;;16.60;99.90;;;;;;5046727;28;20417;-72
2023/07/19 04:04:12;;;;;;;3.90;2.90;;;16.60;99.90;;;;;;5047895;28;20182;-71
2023/07/19 04:06:38;;;;;;;3.83;3.00;;;16.60;99.90;;;;;;5047804;28;20204;-72
2023/07/19 04:09:04;;;;;;;3.07;2.57;;;16.70;99.90;;;;;;5049971;28;20208;-72
2023/07/19 04:11:30;;;;;;;5.33;3.53;;;16.70;99.90;;;;;;5052127;28;20638;-71
2023/07/19 04:13:55;;;;;;;3.90;2.90;;;16.70;99.90;;;;;;5051646;28;20736;-71
2023/07/19 04:16:21;;;;;;;4.00;2.90;;;16.70;99.90;;;;;;5051801;28;20456;-71
2023/07/19 04:18:47;;;;;;;3.57;2.83;;;16.70;99.90;;;;;;5052178;28;20202;-71
2023/07/19 04:21:13;;;;;;;5.00;3.30;;;16.70;99.90;;;;;;5052109;28;20462;-71
2023/07/19 04:23:38;;;;;;;5.03;2.80;;;16.80;99.90;;;;;;5051548;28;20436;-72
2023/07/19 04:26:07;;;;;;;4.30;3.23;;;16.80;99.90;;;;;;5051661;28;20237;-71
2023/07/19 04:28:33;;;;;;;4.27;3.00;;;16.80;99.90;;;;;;5061339;28;20213;-71
2023/07/19 04:30:59;;;;;;;5.10;2.47;;;16.80;99.90;;;;;;5071837;28;20888;-72
2023/07/19 04:33:24;;;;;;;8.63;3.20;;;16.80;99.90;;;;;;5071273;28;20172;-71
2023/07/19 04:35:50;;;;;;;3.43;2.40;;;16.90;99.90;;;;;;5071333;28;20411;-71
2023/07/19 04:38:16;;;;;;;6.80;3.63;;;16.90;99.90;;;;;;5071555;28;20185;-71
2023/07/19 04:40:42;;;;;;;6.40;3.47;;;16.90;99.90;;;;;;5071644;28;20411;-71
2023/07/19 04:43:08;;;;;;;5.40;3.23;;;16.90;99.90;;;;;;5071108;28;20411;-72
2023/07/19 04:45:33;;;;;;;5.83;2.90;;;16.90;99.90;;;;;;5071460;28;20177;-72
2023/07/19 04:47:59;;;;;;;4.10;3.27;;;16.90;99.90;;;;;;5071141;28;20243;-72
2023/07/19 04:50:25;;;;;;;5.47;3.20;;;17.00;99.90;;;;;;5071456;28;20175;-71
2023/07/19 04:52:53;;;;;;;4.93;3.30;;;17.00;99.90;;;;;;5050547;28;20370;-71
2023/07/19 04:55:20;;;;;;;4.33;3.40;;;17.10;99.90;;;;;;5050714;28;20182;-71
2023/07/19 04:57:45;;;;;;;4.23;3.10;;;17.10;99.90;;;;;;5051051;28;20448;-71
2023/07/19 05:00:12;;;;;;;3.87;3.00;;;17.20;99.90;;;;;;5054208;28;20447;-71
2023/07/19 05:02:38;;;;;;;3.87;3.47;;;17.20;99.90;;;;;;5050436;28;20182;-71
2023/07/19 05:05:05;;;;;;;4.87;3.57;;;17.20;99.90;;;;;;5050857;28;20428;-71
2023/07/19 05:07:34;;;;;;;4.20;3.80;;;17.20;99.90;;;;;;5050726;28;20884;-71
2023/07/19 05:10:00;;;;;;;6.90;3.60;;;17.20;99.90;;;;;;5051054;28;20456;-71
2023/07/19 05:12:26;;;;;;;7.27;3.80;;;17.30;99.90;;;;;;5050576;28;20404;-71
2023/07/19 05:14:51;;;;;;;5.50;3.93;;;17.30;99.90;;;;;;5051326;28;20405;-71
2023/07/19 05:17:17;;;;;;;4.20;3.80;;;17.30;99.90;;;;;;5050725;28;20697;-71
2023/07/19 05:19:43;;;;;;;5.00;3.63;;;17.40;99.90;;;;;;5050810;28;20542;-71
2023/07/19 05:22:10;;;;;;;6.70;4.20;;;17.40;99.90;;;;;;5050303;28;20415;-72
2023/07/19 05:24:36;;;;;;;5.03;3.40;;;17.50;99.90;;;;;;5050868;28;20181;-71
2023/07/19 05:27:02;;;;;;;6.43;3.87;;;17.60;99.90;;;;;;5050675;28;20436;-71
2023/07/19 05:29:28;;;;;;;6.83;3.83;;;17.60;99.90;;;;;;5050611;28;20756;-71
2023/07/19 05:31:54;;;;;;;5.33;3.37;;;17.60;99.90;;;;;;5050543;28;20451;-71
2023/07/19 05:34:21;;;;;;;5.97;3.90;;;17.70;99.90;;;;;;5050426;28;20647;-71
2023/07/19 05:36:47;;;;;;;5.03;3.13;;;17.80;99.90;;;;;;5050404;28;20439;-71
2023/07/19 05:39:13;;;;;;;4.87;3.70;;;17.80;99.90;;;;;;5050442;28;20765;-71
2023/07/19 05:41:39;;;;;;;5.33;3.00;;;17.70;99.90;;;;;;5050464;28;20178;-71
2023/07/19 05:44:05;;;;;;;5.00;4.27;;;17.80;99.90;;;;;;5050097;28;20408;-71
2023/07/19 05:46:33;;;;;;;5.10;3.47;;;17.80;99.90;;;;;;5052812;28;20448;-71
2023/07/19 05:48:58;;;;;;;6.57;3.80;;;17.90;99.90;;;;;;5048688;28;20217;-71
2023/07/19 05:51:24;;;;;;;4.27;3.50;;;17.90;99.90;;;;;;5047994;28;20782;-71
2023/07/19 05:53:50;;;;;;;7.70;3.87;;;17.90;99.90;;;;;;5046455;28;20201;-71
2023/07/19 05:56:15;;;;;;;5.50;3.83;;;17.90;99.90;;;;;;5049523;28;20217;-71
2023/07/19 05:58:41;;;;;;;4.53;3.53;;;18.00;99.90;;;;;;5049862;28;20186;-71
2023/07/19 06:01:09;;;;;;;3.93;3.53;;;18.00;99.90;;;;;;5049919;28;20589;-71
2023/07/19 06:03:35;;;;;;;4.90;3.40;;;18.00;99.90;;;;;;5047617;28;20196;-71
2023/07/19 06:06:03;;;;;;;5.00;3.70;;;18.00;99.90;;;;;;5048939;28;20428;-71
2023/07/19 06:08:29;;;;;;;4.00;3.20;;;18.00;99.90;;;;;;5049335;28;20456;-71
2023/07/19 06:10:55;;;;;;;5.67;3.00;;;18.10;99.90;;;;;;5048137;28;20936;-71
2023/07/19 06:13:21;;;;;;;3.73;3.17;;;18.10;99.90;;;;;;5047658;28;20647;-72
2023/07/19 06:15:46;;;;;;;4.73;4.00;;;18.10;99.90;;;;;;5044698;28;20189;-71
2023/07/19 06:18:13;;;;;;;5.50;3.60;;;18.20;99.90;;;;;;5048989;28;20178;-71
2023/07/19 06:20:38;;;;;;;5.10;3.90;;;18.20;99.90;;;;;;5048324;28;20181;-71
2023/07/19 06:23:04;;;;;;;8.90;3.50;;;18.20;99.90;;;;;;5048902;28;20412;-71
2023/07/19 06:25:30;;;;;;;4.93;3.77;;;18.20;99.90;;;;;;5047906;28;20174;-71
2023/07/19 06:27:55;;;;;;;5.50;4.00;;;18.30;99.90;;;;;;5072806;28;20225;-72
2023/07/19 06:30:21;;;;;;;9.97;4.40;;;18.30;99.90;;;;;;5049594;28;20185;-71
2023/07/19 06:32:47;;;;;;;6.50;3.57;;;18.20;99.90;;;;;;5048446;28;20605;-71
2023/07/19 06:35:13;;;;;;;4.47;3.53;;;18.30;99.90;;;;;;5049155;28;20488;-71
2023/07/19 06:37:39;;;;;;;5.93;3.90;;;18.30;99.90;;;;;;5049534;28;20428;-71
2023/07/19 06:40:05;;;;;;;4.40;3.80;;;18.20;99.90;;;;;;5049371;28;20181;-71
2023/07/19 06:42:32;;;;;;;5.20;3.83;;;18.20;99.90;;;;;;5048978;28;20400;-71
2023/07/19 06:44:58;;;;;;;5.63;4.10;;;18.20;99.90;;;;;;5048921;28;20409;-71
2023/07/19 06:47:26;;;;;;;5.53;3.90;;;18.20;99.90;;;;;;5049217;28;20428;-71
2023/07/19 06:49:51;;;;;;;10.40;4.10;;;18.20;99.90;;;;;;5049135;28;20458;-71
2023/07/19 06:52:17;;;;;;;5.10;4.33;;;18.20;99.90;;;;;;5048817;28;20815;-71
2023/07/19 06:54:43;;;;;;;4.77;4.27;;;18.20;99.90;;;;;;5047342;28;20180;-71
2023/07/19 06:57:09;;;;;;;6.07;3.90;;;18.20;99.90;;;;;;5048904;28;20196;-71
2023/07/19 06:59:35;;;;;;;5.67;4.20;;;18.20;99.90;;;;;;5048953;28;20181;-71
2023/07/19 07:02:01;;;;;;;6.60;4.67;;;18.20;99.90;;;;;;5048310;28;20420;-71
2023/07/19 07:04:26;;;;;;;7.10;4.70;;;18.20;99.90;;;;;;5048235;28;20417;-71
2023/07/19 07:06:52;;;;;;;9.97;5.20;;;18.20;99.90;;;;;;5047789;28;20404;-71
2023/07/19 07:09:18;;;;;;;10.37;5.70;;;18.10;99.90;;;;;;5048134;28;20205;-71
2023/07/19 07:11:43;;;;;;;10.00;5.87;;;18.10;99.90;;;;;;5048558;28;20177;-71
2023/07/19 07:14:10;;;;;;;8.50;4.80;;;18.00;99.90;;;;;;5048037;28;20198;-71
2023/07/19 07:16:36;;;;;;;6.77;4.73;;;18.00;99.90;;;;;;5047955;28;20190;-71
2023/07/19 07:19:02;;;;;;;6.03;4.67;;;17.90;99.90;;;;;;5048495;28;20936;-71
2023/07/19 07:21:28;;;;;;;8.47;4.77;;;17.80;99.90;;;;;;5048741;28;20669;-71
2023/07/19 07:23:53;;;;;;;9.00;4.63;;;17.70;99.90;;;;;;5048113;28;20511;-71
2023/07/19 07:26:19;;;;;;;7.23;4.93;;;17.80;99.90;;;;;;5048236;28;20197;-71
2023/07/19 07:28:45;;;;;;;6.40;5.40;;;17.80;99.90;;;;;;5059823;28;20205;-71
2023/07/19 07:31:11;;;;;;;5.00;4.53;;;17.90;99.90;;;;;;5068891;28;20477;-72
2023/07/19 07:33:38;;;;;;;7.23;5.60;;;18.00;99.90;;;;;;5067091;28;20271;-72
2023/07/19 07:36:04;;;;;;;6.60;4.50;;;18.00;99.90;;;;;;5068432;28;20438;-72
2023/07/19 07:38:29;;;;;;;7.17;5.37;;;18.10;99.90;;;;;;5067670;28;20426;-72
2023/07/19 07:41:05;;;;;;;8.70;5.57;;;18.20;99.90;;;;;;5068876;28;20807;-72
2023/07/19 07:43:31;;;;;;;7.47;5.70;;;18.20;99.90;;;;;;5068213;28;20177;-72
2023/07/19 07:45:57;;;;;;;10.00;5.67;;;18.20;99.90;;;;;;5068189;28;20427;-72
2023/07/19 07:48:23;;;;;;;7.33;5.10;;;18.20;99.90;;;;;;5068632;28;20499;-72
2023/07/19 07:50:51;;;;;;;9.27;5.20;;;18.30;99.90;;;;;;5068790;28;20181;-72
2023/07/19 07:53:20;;;;;;;21.63;8.73;;;18.30;99.90;;;;;;5049571;28;20470;-71
2023/07/19 07:55:46;;;;;;;10.00;5.97;;;18.30;99.90;;;;;;5048143;28;20419;-71
2023/07/19 07:58:13;;;;;;;8.77;5.27;;;18.30;99.90;;;;;;5047492;28;20493;-71
2023/07/19 08:00:38;;;;;;;6.63;4.83;;;18.30;99.90;;;;;;5048488;28;20423;-71
2023/07/19 08:03:04;;;;;;;6.77;5.43;;;18.40;99.90;;;;;;5047519;28;20412;-71
2023/07/19 08:05:32;;;;;;;6.97;5.40;;;18.40;99.90;;;;;;5048240;28;20688;-71
2023/07/19 08:07:57;;;;;;;7.07;4.73;;;18.40;99.90;;;;;;5048143;28;20256;-71
2023/07/19 08:10:23;;;;;;;4.70;4.20;;;18.50;99.90;;;;;;5048357;28;20493;-71
2023/07/19 08:12:49;;;;;;;8.50;4.63;;;18.50;99.90;;;;;;5047965;28;20174;-71
2023/07/19 08:15:15;;;;;;;6.50;5.00;;;18.40;99.90;;;;;;5048138;28;20295;-72
2023/07/19 08:17:40;;;;;;;8.70;5.10;;;18.50;99.90;;;;;;5047971;28;20451;-71
2023/07/19 08:20:09;;;;;;;5.83;4.47;;;18.50;99.90;;;;;;5048026;28;20185;-71
2023/07/19 08:22:36;;;;;;;4.80;3.90;;;18.50;99.90;;;;;;5047758;28;20178;-71
2023/07/19 08:25:02;;;;;;;7.73;5.23;;;18.60;99.90;;;;;;5046735;28;20755;-71
2023/07/19 08:27:27;;;;;;;9.47;5.63;;;18.70;99.90;;;;;;5047783;28;20506;-71
2023/07/19 08:29:53;;;;;;;10.83;6.00;;;18.70;99.90;;;;;;5056884;28;20533;-71
2023/07/19 08:32:19;;;;;;;7.03;5.30;;;18.70;99.90;;;;;;5047480;28;20292;-71
2023/07/19 08:34:45;;;;;;;5.70;4.83;;;18.80;99.90;;;;;;5047712;28;20596;-71
2023/07/19 08:37:11;;;;;;;7.53;4.53;;;18.90;99.90;;;;;;5048059;28;20428;-71
2023/07/19 08:39:37;;;;;;;6.90;5.30;;;19.10;99.90;;;;;;5047918;28;20186;-71
2023/07/19 08:42:03;;;;;;;8.37;6.10;;;19.20;99.90;;;;;;5047287;28;20486;-71
2023/07/19 08:44:29;;;;;;;8.20;5.83;;;19.30;99.90;;;;;;5047101;28;20420;-71
2023/07/19 08:46:55;;;;;;;6.40;4.60;;;19.30;99.90;;;;;;5047500;28;20467;-71
2023/07/19 08:49:21;;;;;;;7.10;5.43;;;19.30;99.90;;;;;;5047858;28;20812;-71
2023/07/19 08:51:47;;;;;;;8.93;5.33;;;19.40;99.90;;;;;;5047559;28;20404;-71
2023/07/19 08:54:13;;;;;;;8.30;6.63;;;19.30;99.90;;;;;;5047790;28;20957;-71
2023/07/19 08:56:40;;;;;;;8.27;6.67;;;19.30;99.90;;;;;;5050861;28;20951;-71
2023/07/19 08:59:06;;;;;;;9.90;5.20;;;19.30;99.90;;;;;;5050125;28;20420;-71
2023/07/19 09:01:33;;;;;;;6.93;5.63;;;19.30;99.90;;;;;;5051136;28;20660;-71
2023/07/19 09:03:58;;;;;;;6.60;5.30;;;19.40;99.90;;;;;;5051018;28;20412;-71
2023/07/19 09:06:30;;;;;;;8.60;6.00;;;19.40;99.90;;;;;;5050710;28;20506;-71
2023/07/19 09:08:56;;;;;;;7.00;4.70;;;19.40;99.90;;;;;;5050987;28;20205;-71
2023/07/19 09:11:22;;;;;;;9.10;4.40;;;19.40;99.90;;;;;;5051261;28;20419;-71
2023/07/19 09:13:58;;;;;;;8.07;4.50;;;19.40;99.90;;;;;;5050717;28;20412;-71
2023/07/19 09:16:29;;;;;;;5.57;4.20;;;19.40;99.90;;;;;;5050602;28;20431;-71
2023/07/19 09:18:57;;;;;;;8.10;4.60;;;19.40;99.90;;;;;;5051027;28;20996;-71
2023/07/19 09:21:33;;;;;;;8.00;4.80;;;19.40;99.90;;;;;;5050941;28;20689;-71
2023/07/19 09:24:02;;;;;;;8.63;5.03;;;19.40;99.90;;;;;;5050572;28;20455;-71
2023/07/19 09:26:28;;;;;;;8.83;4.63;;;19.40;99.90;;;;;;5050728;28;21043;-71
2023/07/19 09:28:55;;;;;;;6.13;4.30;;;19.40;99.90;;;;;;5050939;28;20468;-71
2023/07/19 09:31:22;;;;;;;8.53;5.10;;;19.40;99.90;;;;;;5050617;28;20269;-71
2023/07/19 09:33:48;;;;;;;9.57;4.97;;;19.40;99.90;;;;;;5050495;28;20412;-71
2023/07/19 09:36:18;;;;;;;8.00;4.77;;;19.40;99.90;;;;;;5049204;28;20462;-71
2023/07/19 09:38:44;;;;;;;5.97;3.77;;;19.50;99.90;;;;;;5051124;28;20784;-71
2023/07/19 09:41:09;;;;;;;11.00;4.60;;;19.40;99.90;;;;;;5050730;28;20412;-71
2023/07/19 09:43:36;;;;;;;6.00;4.07;;;19.40;99.90;;;;;;5050477;28;20408;-71
2023/07/19 09:46:03;;;;;;;5.20;4.23;;;19.50;99.90;;;;;;5050620;28;20215;-71
2023/07/19 09:48:30;;;;;;;7.37;4.00;;;19.60;99.90;;;;;;5050552;28;20867;-71
2023/07/19 09:51:02;;;;;;;6.80;3.60;;;19.60;99.90;;;;;;5050711;28;20779;-71
2023/07/19 09:53:30;;;;;;;7.60;4.50;;;19.60;99.90;;;;;;5030251;28;20425;-71
2023/07/19 09:55:56;;;;;;;6.73;4.17;;;19.70;99.90;;;;;;5030333;28;20532;-71
2023/07/19 09:58:23;;;;;;;6.73;4.40;;;19.80;99.90;;;;;;5030489;28;20410;-72
2023/07/19 10:00:49;;;;;;;7.33;4.93;;;19.80;99.90;;;;;;5030607;28;20413;-71
2023/07/19 10:03:19;;;;;;;6.43;4.63;;;19.80;99.90;;;;;;5029660;28;20424;-71
2023/07/19 10:05:45;;;;;;;6.40;4.80;;;19.80;99.90;;;;;;5029438;28;20444;-71
2023/07/19 10:08:11;;;;;;;9.00;5.10;;;19.80;99.90;;;;;;5029555;28;20445;-71
2023/07/19 10:10:36;;;;;;;5.80;4.17;;;19.80;99.90;;;;;;5030282;28;20667;-71
2023/07/19 10:13:02;;;;;;;4.97;4.43;;;19.80;99.90;;;;;;5029730;28;20978;-72
2023/07/19 10:15:28;;;;;;;7.23;5.17;;;19.80;99.90;;;;;;5029962;28;20229;-72
2023/07/19 10:17:54;;;;;;;5.10;4.60;;;19.80;99.90;;;;;;5029730;28;20198;-72
2023/07/19 10:20:29;;;;;;;7.83;5.50;;;19.90;99.90;;;;;;5029957;28;20421;-72
2023/07/19 10:22:58;;;;;;;7.67;5.20;;;19.90;99.90;;;;;;5029416;28;20555;-72
2023/07/19 10:25:47;;;;;;;5.20;4.70;;;19.90;99.90;;;;;;5029631;28;20444;-72
2023/07/19 10:28:24;;;;;;;10.40;5.23;;;19.90;99.90;;;;;;5043342;28;20430;-72
2023/07/19 10:30:53;;;;;;;8.07;5.73;;;20.10;99.90;;;;;;5069664;28;20765;-72
2023/07/19 10:33:23;;;;;;;9.57;5.50;;;20.20;99.90;;;;;;5068871;28;20472;-71
2023/07/19 10:35:51;;;;;;;7.47;6.10;;;20.30;99.90;;;;;;5063490;28;20418;-71
2023/07/19 10:38:20;;;;;;;6.67;5.97;;;20.60;99.90;;;;;;5048221;28;20424;-72
2023/07/19 10:41:03;;;;;;;10.53;6.60;;;20.60;99.90;;;;;;5046679;28;20420;-71
2023/07/19 10:43:31;;;;;;;8.20;5.73;;;20.70;99.90;;;;;;5043979;28;20439;-72
2023/07/19 10:46:00;;;;;;;8.90;5.80;;;20.70;99.90;;;;;;5048294;28;20492;-72
2023/07/19 10:48:30;;;;;;;8.40;7.03;;;20.80;99.90;;;;;;5046372;28;20489;-71
2023/07/19 10:51:03;;;;;;;7.93;6.40;;;20.80;99.90;;;;;;5049500;28;20423;-71
2023/07/19 10:53:39;;;;;;;11.70;6.23;;;20.90;99.90;;;;;;5048385;28;20510;-71
2023/07/19 10:56:06;;;;;;;8.03;6.10;;;21.00;99.90;;;;;;5048753;28;20427;-71
2023/07/19 10:58:31;;;;;;;8.30;5.50;;;21.20;99.90;;;;;;5049121;28;20819;-71
2023/07/19 11:00:57;;;;;;;6.97;5.70;;;21.30;99.90;;;;;;5048830;28;20416;-71
2023/07/19 11:03:26;;;;;;;8.67;5.40;;;21.30;99.90;;;;;;5048162;28;20182;-71
2023/07/19 11:05:52;;;;;;;6.47;4.90;;;21.30;99.90;;;;;;5048381;28;20427;-71
2023/07/19 11:08:29;;;;;;;8.17;5.00;;;21.40;99.90;;;;;;5048743;28;20447;-71
2023/07/19 11:10:56;;;;;;;20.20;6.93;;;21.40;99.90;;;;;;5048648;28;21052;-71
2023/07/19 11:13:25;;;;;;;7.30;6.07;;;21.50;99.90;;;;;;5048206;28;20420;-71
2023/07/19 11:15:58;;;;;;;10.73;5.30;;;21.50;99.90;;;;;;5048910;28;20503;-70
2023/07/19 11:18:24;;;;;;;7.73;5.43;;;21.50;99.90;;;;;;5048395;28;20427;-70
2023/07/19 11:20:50;;;;;;;5.57;4.50;;;21.50;99.90;;;;;;5048830;28;20416;-70
2023/07/19 11:23:16;;;;;;;8.87;5.50;;;21.50;99.90;;;;;;5048209;28;20777;-70
2023/07/19 11:25:42;;;;;;;8.13;4.80;;;21.60;99.90;;;;;;5048180;28;20427;-70
2023/07/19 11:28:08;;;;;;;5.97;4.80;;;21.60;99.90;;;;;;5053431;28;20196;-70
2023/07/19 11:30:37;;;;;;;6.17;4.80;;;21.60;99.90;;;;;;5048618;28;20763;-70
2023/07/19 11:33:09;;;;;;;6.30;4.40;;;21.70;99.90;;;;;;5047793;28;20223;-71
2023/07/19 11:35:36;;;;;;;5.80;4.80;;;21.80;99.90;;;;;;5048338;28;20424;-70
2023/07/19 11:38:02;;;;;;;7.90;4.00;;;21.90;99.90;;;;;;5048224;28;20409;-71
2023/07/19 11:40:28;;;;;;;5.40;4.60;;;22.00;99.90;;;;;;5048438;28;20435;-71
2023/07/19 11:42:58;;;;;;;8.53;3.97;;;22.00;99.90;;;;;;5047705;28;20409;-70
2023/07/19 11:45:26;;;;;;;9.63;5.53;;;22.00;99.90;;;;;;5047818;28;20646;-71
2023/07/19 11:47:56;;;;;;;5.20;4.60;;;22.00;99.90;;;;;;5047714;28;20584;-71
2023/07/19 11:50:23;;;;;;;6.63;4.87;;;22.10;99.90;;;;;;5047664;28;20463;-71
2023/07/19 11:52:59;;;;;;;7.97;3.70;;;22.00;99.90;;;;;;5047480;28;20423;-71
2023/07/19 11:55:25;;;;;;;6.97;4.63;;;22.00;99.90;;;;;;5046344;28;20454;-71
2023/07/19 11:57:52;;;;;;;5.60;3.90;;;22.00;99.90;;;;;;5047882;28;20424;-71
2023/07/19 12:00:20;;;;;;;3.60;2.97;;;22.10;99.90;;;;;;5047504;28;20550;-71
2023/07/19 12:02:48;;;;;;;7.53;4.13;;;22.30;99.90;;;;;;5046147;28;20505;-71
2023/07/19 12:05:19;;;;;;;7.50;4.20;;;22.30;99.90;;;;;;5046767;28;20416;-71
2023/07/19 12:07:46;;;;;;;4.23;3.50;;;22.30;99.90;;;;;;5047201;28;20467;-71
2023/07/19 12:10:15;;;;;;;5.00;3.70;;;22.40;99.90;;;;;;5047839;28;21008;-70
2023/07/19 12:12:41;;;;;;;5.40;4.10;;;22.60;99.90;;;;;;5047223;28;20933;-71
2023/07/19 12:15:09;;;;;;;5.83;3.50;;;22.70;99.90;;;;;;5047551;28;20439;-71
2023/07/19 12:17:36;;;;;;;5.83;3.73;;;22.80;99.90;;;;;;5047710;28;20428;-71
2023/07/19 12:20:07;;;;;;;5.00;3.50;;;23.00;99.90;;;;;;5047671;28;20474;-70
2023/07/19 12:22:37;;;;;;;4.97;3.30;;;23.10;99.90;;;;;;5047517;28;20417;-71
2023/07/19 12:25:06;;;;;;;4.73;3.20;;;23.20;99.90;;;;;;5047352;28;20833;-71
2023/07/19 12:27:32;;;;;;;4.40;2.80;;;23.30;99.90;;;;;;5048795;28;20937;-71
2023/07/19 12:29:58;;;;;;;5.43;2.67;;;23.40;99.90;;;;;;5052841;28;20487;-70
2023/07/19 12:32:25;;;;;;;20.73;5.30;;;23.50;99.90;;;;;;5051026;28;20231;-71
2023/07/19 12:34:50;;;;;;;7.60;3.77;;;23.50;99.90;;;;;;5049927;28;20174;-71
2023/07/19 12:37:16;;;;;;;3.00;2.30;;;23.60;99.90;;;;;;5051221;28;20523;-71
2023/07/19 12:39:42;;;;;;;75.87;12.43;;;23.60;99.90;;;;;;5051376;28;20669;-71
2023/07/19 12:42:09;;;;;;;6.10;2.80;;;23.80;99.90;;;;;;5050883;28;20786;-71